Time;durP1;ratioP1;P1;durP2;ratioP2;P2;SDS_P1;SDS_P2;PMS_P1;PMS_P2;Temp;Humidity;BMP_temperature;BMP_pressure;BME280_temperature;BME280_humidity;BME280_pressure;Samples;Min_cycle;Max_cycle;Signal;HPM_P1;HPM_P2
2022/07/22 00:01:34;;;;;;;50.93;46.27;;;;;;;;;;5072793;28;20842;-75
2022/07/22 00:04:02;;;;;;;51.67;47.07;;;;;;;;;;5072490;28;20896;-75
2022/07/22 00:06:30;;;;;;;52.00;47.10;;;;;;;;;;5072459;28;20483;-75
2022/07/22 00:08:58;;;;;;;48.77;44.83;;;;;;;;;;5072807;28;20435;-75
2022/07/22 00:11:25;;;;;;;45.63;42.03;;;;;;;;;;5073539;28;20430;-74
2022/07/22 00:13:54;;;;;;;46.97;43.27;;;;;;;;;;5073955;28;20422;-75
2022/07/22 00:16:21;;;;;;;46.50;43.03;;;;;;;;;;5074112;28;20414;-74
2022/07/22 00:18:48;;;;;;;45.23;41.93;;;;;;;;;;5073904;28;20403;-75
2022/07/22 00:21:15;;;;;;;44.33;41.13;;;;;;;;;;5072674;28;20439;-75
2022/07/22 00:23:43;;;;;;;43.73;40.53;;;;;;;;;;5072637;28;20440;-75
2022/07/22 00:26:10;;;;;;;40.80;37.90;;;;;;;;;;5072629;28;20450;-75
2022/07/22 00:28:37;;;;;;;44.00;40.83;;;;;;;;;;5072352;28;20831;-75
2022/07/22 00:31:07;;;;;;;43.27;39.90;;;;;;;;;;5072605;28;20410;-75
2022/07/22 00:33:34;;;;;;;39.30;36.60;;;;;;;;;;5073054;28;20437;-74
2022/07/22 00:36:01;;;;;;;39.30;36.60;;;;;;;;;;5074314;28;20454;-75
2022/07/22 00:38:29;;;;;;;37.73;35.07;;;;;;;;;;5073319;28;20513;-74
2022/07/22 00:40:56;;;;;;;37.40;34.97;;;;;;;;;;5072121;28;20531;-75
2022/07/22 00:43:24;;;;;;;33.67;31.67;;;;;;;;;;5072413;28;21001;-75
2022/07/22 00:45:52;;;;;;;33.30;31.20;;;;;;;;;;5072794;28;20439;-75
2022/07/22 00:48:20;;;;;;;32.63;30.23;;;;;;;;;;5072537;28;20501;-75
2022/07/22 00:50:48;;;;;;;33.50;31.60;;;;;;;;;;5075630;28;20409;-75
2022/07/22 00:53:15;;;;;;;34.00;31.53;;;;;;;;;;5075890;28;20819;-75
2022/07/22 00:55:42;;;;;;;34.10;32.00;;;;;;;;;;5076143;28;20443;-75
2022/07/22 00:58:10;;;;;;;31.80;29.70;;;;;;;;;;5075619;28;20413;-75
2022/07/22 01:00:37;;;;;;;33.63;31.43;;;;;;;;;;5075698;28;20439;-75
2022/07/22 01:03:04;;;;;;;29.30;27.70;;;;;;;;;;5075531;28;20439;-75
2022/07/22 01:05:33;;;;;;;31.07;29.27;;;;;;;;;;5075331;28;20908;-75
2022/07/22 01:08:00;;;;;;;30.50;28.80;;;;;;;;;;5075225;28;20503;-75
2022/07/22 01:10:28;;;;;;;32.70;30.57;;;;;;;;;;5075476;28;20426;-75
2022/07/22 01:12:55;;;;;;;32.27;30.17;;;;;;;;;;5075387;28;20505;-75
2022/07/22 01:15:22;;;;;;;31.83;29.97;;;;;;;;;;5075121;28;20425;-75
2022/07/22 01:17:51;;;;;;;30.57;28.67;;;;;;;;;;5074986;28;20421;-75
2022/07/22 01:20:19;;;;;;;33.13;31.03;;;;;;;;;;5074934;28;20910;-75
2022/07/22 01:22:47;;;;;;;33.47;31.07;;;;;;;;;;5075288;28;20940;-75
2022/07/22 01:25:14;;;;;;;32.43;30.33;;;;;;;;;;5075365;28;20446;-75
2022/07/22 01:27:41;;;;;;;33.17;30.90;;;;;;;;;;5074851;28;20470;-74
2022/07/22 01:30:09;;;;;;;32.57;30.33;;;;;;;;;;5074857;28;20457;-75
2022/07/22 01:32:37;;;;;;;31.97;29.87;;;;;;;;;;5074983;28;20426;-75
2022/07/22 01:35:04;;;;;;;33.07;30.83;;;;;;;;;;5074900;28;20480;-75
2022/07/22 01:37:34;;;;;;;31.30;29.10;;;;;;;;;;5075079;28;20427;-75
2022/07/22 01:40:02;;;;;;;32.90;30.57;;;;;;;;;;5074823;28;20457;-75
2022/07/22 01:42:30;;;;;;;32.67;30.40;;;;;;;;;;5074769;28;20439;-75
2022/07/22 01:44:58;;;;;;;30.93;28.83;;;;;;;;;;5074720;28;20903;-75
2022/07/22 01:47:25;;;;;;;30.43;28.50;;;;;;;;;;5074373;28;20464;-74
2022/07/22 01:49:52;;;;;;;30.70;28.70;;;;;;;;;;5074324;28;20453;-75
2022/07/22 01:52:20;;;;;;;31.97;29.97;;;;;;;;;;5074818;28;20444;-75
2022/07/22 01:54:48;;;;;;;30.50;28.80;;;;;;;;;;5074860;28;20415;-75
2022/07/22 01:57:15;;;;;;;30.10;28.17;;;;;;;;;;5074627;28;20447;-75
2022/07/22 01:59:43;;;;;;;29.73;28.10;;;;;;;;;;5074403;28;20420;-75
2022/07/22 02:02:10;;;;;;;29.00;27.20;;;;;;;;;;5074538;28;20412;-75
2022/07/22 02:04:37;;;;;;;31.17;29.33;;;;;;;;;;5074276;28;20414;-75
2022/07/22 02:07:05;;;;;;;30.27;28.50;;;;;;;;;;5074281;28;20451;-75
2022/07/22 02:09:32;;;;;;;31.17;29.27;;;;;;;;;;5074352;28;20417;-75
2022/07/22 02:12:01;;;;;;;30.17;28.27;;;;;;;;;;5073953;28;20436;-74
2022/07/22 02:14:28;;;;;;;30.13;28.43;;;;;;;;;;5073850;28;20920;-75
2022/07/22 02:16:55;;;;;;;31.80;30.00;;;;;;;;;;5073833;28;20903;-75
2022/07/22 02:19:23;;;;;;;31.40;29.40;;;;;;;;;;5073719;28;20962;-74
2022/07/22 02:21:50;;;;;;;30.90;29.03;;;;;;;;;;5074034;28;20406;-74
2022/07/22 02:24:17;;;;;;;31.43;29.37;;;;;;;;;;5073677;28;20419;-74
2022/07/22 02:26:45;;;;;;;33.77;31.57;;;;;;;;;;5073654;28;20777;-75
2022/07/22 02:29:13;;;;;;;31.87;29.80;;;;;;;;;;5073880;28;20406;-74
2022/07/22 02:31:41;;;;;;;30.37;28.47;;;;;;;;;;5074185;28;20431;-75
2022/07/22 02:34:08;;;;;;;29.90;28.10;;;;;;;;;;5073901;28;20462;-75
2022/07/22 02:36:36;;;;;;;30.90;29.10;;;;;;;;;;5073611;28;20991;-75
2022/07/22 02:39:03;;;;;;;31.00;29.10;;;;;;;;;;5073675;28;20530;-75
2022/07/22 02:41:30;;;;;;;32.93;30.73;;;;;;;;;;5073175;28;20459;-74
2022/07/22 02:43:58;;;;;;;31.37;29.37;;;;;;;;;;5073530;28;20906;-75
2022/07/22 02:46:28;;;;;;;30.80;28.80;;;;;;;;;;5073243;28;20440;-74
2022/07/22 02:48:55;;;;;;;31.40;29.40;;;;;;;;;;5073364;28;20794;-75
2022/07/22 02:51:23;;;;;;;30.87;28.93;;;;;;;;;;5073602;28;20433;-75
2022/07/22 02:53:50;;;;;;;31.60;29.30;;;;;;;;;;5073159;28;20411;-75
2022/07/22 02:56:19;;;;;;;30.83;28.80;;;;;;;;;;5073247;28;20746;-75
2022/07/22 02:58:47;;;;;;;30.67;28.77;;;;;;;;;;5073379;28;20494;-75
2022/07/22 03:01:15;;;;;;;30.40;28.50;;;;;;;;;;5073270;28;20411;-75
2022/07/22 03:03:44;;;;;;;30.53;28.60;;;;;;;;;;5073566;28;20410;-74
2022/07/22 03:06:11;;;;;;;29.27;27.57;;;;;;;;;;5073214;28;20780;-75
2022/07/22 03:08:38;;;;;;;29.47;27.47;;;;;;;;;;5073342;28;20462;-75
2022/07/22 03:11:06;;;;;;;28.53;26.93;;;;;;;;;;5073205;28;20447;-75
2022/07/22 03:13:33;;;;;;;29.13;27.30;;;;;;;;;;5072878;28;20426;-75
2022/07/22 03:16:00;;;;;;;29.20;27.40;;;;;;;;;;5072920;28;20417;-75
2022/07/22 03:18:28;;;;;;;28.70;27.20;;;;;;;;;;5072810;28;20521;-75
2022/07/22 03:20:56;;;;;;;28.87;27.27;;;;;;;;;;5072917;28;20954;-75
2022/07/22 03:23:24;;;;;;;28.93;27.03;;;;;;;;;;5073473;28;20439;-74
2022/07/22 03:25:51;;;;;;;29.73;28.10;;;;;;;;;;5073118;28;20433;-75
2022/07/22 03:28:19;;;;;;;29.20;27.60;;;;;;;;;;5072962;28;20568;-75
2022/07/22 03:30:46;;;;;;;31.87;29.37;;;;;;;;;;5073214;28;20436;-75
2022/07/22 03:33:13;;;;;;;29.60;27.93;;;;;;;;;;5072762;28;20418;-75
2022/07/22 03:35:40;;;;;;;29.97;28.37;;;;;;;;;;5073260;28;20467;-74
2022/07/22 03:38:09;;;;;;;30.23;28.43;;;;;;;;;;5072677;28;20427;-75
2022/07/22 03:40:37;;;;;;;33.03;30.77;;;;;;;;;;5072604;28;20462;-75
2022/07/22 03:43:04;;;;;;;32.93;30.87;;;;;;;;;;5072933;28;20439;-74
2022/07/22 03:45:31;;;;;;;32.40;30.20;;;;;;;;;;5072667;28;20419;-75
2022/07/22 03:47:59;;;;;;;33.57;31.33;;;;;;;;;;5072521;28;20486;-75
2022/07/22 03:50:26;;;;;;;31.40;29.27;;;;;;;;;;5072495;28;20420;-75
2022/07/22 03:52:53;;;;;;;33.70;31.30;;;;;;;;;;5072515;28;20997;-75
2022/07/22 03:55:22;;;;;;;32.93;30.53;;;;;;;;;;5072523;28;20423;-75
2022/07/22 03:57:50;;;;;;;32.67;30.47;;;;;;;;;;5072786;28;20469;-74
2022/07/22 04:00:17;;;;;;;34.37;31.87;;;;;;;;;;5072334;28;20409;-75
2022/07/22 04:02:45;;;;;;;32.67;30.37;;;;;;;;;;5072829;28;20456;-75
2022/07/22 04:05:12;;;;;;;334.33;316.17;;;;;;;;;;5073286;28;20412;-74
2022/07/22 04:07:39;;;;;;;32.97;30.50;;;;;;;;;;5077314;28;20473;-74
2022/07/22 04:10:07;;;;;;;31.77;29.80;;;;;;;;;;5078809;28;20505;-74
2022/07/22 04:12:36;;;;;;;31.63;29.33;;;;;;;;;;5072780;28;20836;-75
2022/07/22 04:15:04;;;;;;;32.70;30.60;;;;;;;;;;5073248;28;20428;-75
2022/07/22 04:17:31;;;;;;;31.73;29.53;;;;;;;;;;5072491;28;20415;-75
2022/07/22 04:20:00;;;;;;;31.10;29.10;;;;;;;;;;5072470;28;20450;-75
2022/07/22 04:22:27;;;;;;;32.13;30.00;;;;;;;;;;5072575;28;20431;-75
2022/07/22 04:24:55;;;;;;;31.13;29.10;;;;;;;;;;5075295;28;20782;-74
2022/07/22 04:27:23;;;;;;;31.40;29.30;;;;;;;;;;5076519;28;20483;-74
2022/07/22 04:30:04;;;;;;;29.80;27.80;;;;;;;;;;5078133;28;20435;-74
2022/07/22 04:32:32;;;;;;;31.47;29.40;;;;;;;;;;5078195;28;20447;-74
2022/07/22 04:35:00;;;;;;;30.07;28.17;;;;;;;;;;5077722;28;20814;-74
2022/07/22 04:37:27;;;;;;;30.03;28.23;;;;;;;;;;5081262;28;20455;-75
2022/07/22 04:39:55;;;;;;;30.70;28.87;;;;;;;;;;5082379;28;20469;-74
2022/07/22 04:42:22;;;;;;;29.43;27.43;;;;;;;;;;5079266;28;20409;-75
2022/07/22 04:44:50;;;;;;;27.67;26.10;;;;;;;;;;5075877;28;20913;-75
2022/07/22 04:47:18;;;;;;;28.20;26.40;;;;;;;;;;5075910;28;20423;-75
2022/07/22 04:49:46;;;;;;;27.30;25.77;;;;;;;;;;5075387;28;20436;-75
2022/07/22 04:52:13;;;;;;;27.30;25.50;;;;;;;;;;5076620;28;20409;-75
2022/07/22 04:54:40;;;;;;;27.07;25.37;;;;;;;;;;5075732;28;20931;-76
2022/07/22 04:57:08;;;;;;;26.40;24.90;;;;;;;;;;5075952;28;20439;-75
2022/07/22 04:59:35;;;;;;;27.13;25.33;;;;;;;;;;5075345;28;20454;-75
2022/07/22 05:02:03;;;;;;;26.33;24.57;;;;;;;;;;5075516;28;21014;-75
2022/07/22 05:04:32;;;;;;;26.03;24.33;;;;;;;;;;5075842;28;20436;-76
2022/07/22 05:06:59;;;;;;;25.40;23.90;;;;;;;;;;5075516;28;20444;-75
2022/07/22 05:09:27;;;;;;;24.60;22.77;;;;;;;;;;5075292;28;21005;-75
2022/07/22 05:11:54;;;;;;;26.60;24.40;;;;;;;;;;5075665;28;20445;-75
2022/07/22 05:14:21;;;;;;;24.93;23.43;;;;;;;;;;5075790;28;20414;-76
2022/07/22 05:16:49;;;;;;;24.33;23.07;;;;;;;;;;5075370;28;20932;-76
2022/07/22 05:19:16;;;;;;;23.87;22.33;;;;;;;;;;5075050;28;20417;-75
2022/07/22 05:21:45;;;;;;;24.13;22.60;;;;;;;;;;5075643;28;20430;-75
2022/07/22 05:24:12;;;;;;;24.47;23.07;;;;;;;;;;5075343;28;20797;-75
2022/07/22 05:26:39;;;;;;;25.90;24.10;;;;;;;;;;5075489;28;20414;-76
2022/07/22 05:29:06;;;;;;;23.93;22.40;;;;;;;;;;5075108;28;21014;-76
2022/07/22 05:31:34;;;;;;;23.93;22.60;;;;;;;;;;5075699;28;20826;-77
2022/07/22 05:34:02;;;;;;;25.67;24.17;;;;;;;;;;5075178;28;20419;-76
2022/07/22 05:36:30;;;;;;;26.37;24.63;;;;;;;;;;5074570;28;20422;-76
2022/07/22 05:38:58;;;;;;;25.03;23.63;;;;;;;;;;5075676;28;20434;-75
2022/07/22 05:41:26;;;;;;;23.00;21.83;;;;;;;;;;5074984;28;20456;-75
2022/07/22 05:43:53;;;;;;;23.50;22.07;;;;;;;;;;5075696;28;20410;-75
2022/07/22 05:46:20;;;;;;;22.10;21.00;;;;;;;;;;5076240;28;20437;-75
2022/07/22 05:48:47;;;;;;;22.73;21.43;;;;;;;;;;5076438;28;20463;-76
2022/07/22 05:51:15;;;;;;;22.87;21.73;;;;;;;;;;5077181;28;20437;-76
2022/07/22 05:53:42;;;;;;;22.73;21.40;;;;;;;;;;5077278;28;20443;-75
2022/07/22 05:56:11;;;;;;;24.40;22.90;;;;;;;;;;5075146;28;20448;-76
2022/07/22 05:58:39;;;;;;;24.77;22.70;;;;;;;;;;5074752;28;20424;-75
2022/07/22 06:01:06;;;;;;;23.83;22.47;;;;;;;;;;5074812;28;20447;-75
2022/07/22 06:03:35;;;;;;;23.20;21.70;;;;;;;;;;5079679;28;20764;-76
2022/07/22 06:06:04;;;;;;;24.23;22.40;;;;;;;;;;5074525;28;20415;-76
2022/07/22 06:08:31;;;;;;;21.60;20.40;;;;;;;;;;5075040;28;20461;-75
2022/07/22 06:10:59;;;;;;;22.40;21.20;;;;;;;;;;5075152;28;20414;-76
2022/07/22 06:13:28;;;;;;;23.80;22.40;;;;;;;;;;5074466;28;20823;-76
2022/07/22 06:15:55;;;;;;;23.73;22.30;;;;;;;;;;5074499;28;20413;-76
2022/07/22 06:18:22;;;;;;;24.97;23.37;;;;;;;;;;5079833;28;20410;-76
2022/07/22 06:20:49;;;;;;;23.40;22.10;;;;;;;;;;5094676;28;20433;-77
2022/07/22 06:23:17;;;;;;;23.40;22.00;;;;;;;;;;5094414;28;20420;-76
2022/07/22 06:25:44;;;;;;;24.07;22.30;;;;;;;;;;5094805;28;20438;-76
2022/07/22 06:28:12;;;;;;;22.80;21.50;;;;;;;;;;5095081;28;20451;-76
2022/07/22 06:30:41;;;;;;;22.73;21.47;;;;;;;;;;5094686;28;20796;-76
2022/07/22 06:33:09;;;;;;;22.80;21.50;;;;;;;;;;5094422;28;20437;-76
2022/07/22 06:35:36;;;;;;;23.30;21.90;;;;;;;;;;5094604;28;20434;-76
2022/07/22 06:38:04;;;;;;;24.93;23.63;;;;;;;;;;5094857;28;21113;-76
2022/07/22 06:40:31;;;;;;;24.50;23.00;;;;;;;;;;5094784;28;20469;-76
2022/07/22 06:42:58;;;;;;;24.50;22.93;;;;;;;;;;5095638;28;20441;-76
2022/07/22 06:45:26;;;;;;;23.77;22.17;;;;;;;;;;5097963;28;20415;-75
2022/07/22 06:47:54;;;;;;;23.77;22.17;;;;;;;;;;5097445;28;20425;-76
2022/07/22 06:50:22;;;;;;;23.57;22.27;;;;;;;;;;5095061;28;20422;-77
2022/07/22 06:52:49;;;;;;;23.30;21.90;;;;;;;;;;5094484;28;20416;-76
2022/07/22 06:55:17;;;;;;;23.47;22.03;;;;;;;;;;5094366;28;20430;-76
2022/07/22 06:57:44;;;;;;;22.50;21.10;;;;;;;;;;5093900;28;20919;-77
2022/07/22 07:00:12;;;;;;;22.33;21.00;;;;;;;;;;5093866;28;20428;-76
2022/07/22 07:02:39;;;;;;;22.37;21.03;;;;;;;;;;5093519;28;20442;-76
2022/07/22 07:05:09;;;;;;;22.60;21.30;;;;;;;;;;5093840;28;20413;-76
2022/07/22 07:07:36;;;;;;;22.97;21.50;;;;;;;;;;5093668;28;20416;-75
2022/07/22 07:10:04;;;;;;;23.77;22.00;;;;;;;;;;5094653;28;20464;-76
2022/07/22 07:12:31;;;;;;;22.10;20.80;;;;;;;;;;5093541;28;20437;-76
2022/07/22 07:14:58;;;;;;;22.97;21.67;;;;;;;;;;5093870;28;20425;-75
2022/07/22 07:17:26;;;;;;;22.30;20.90;;;;;;;;;;5095011;28;20428;-76
2022/07/22 07:19:53;;;;;;;21.83;20.63;;;;;;;;;;5094746;28;20834;-76
2022/07/22 07:22:22;;;;;;;21.97;20.70;;;;;;;;;;5094226;28;20446;-75
2022/07/22 07:24:50;;;;;;;21.43;20.13;;;;;;;;;;5094380;28;20449;-76
2022/07/22 07:27:17;;;;;;;22.20;20.90;;;;;;;;;;5094076;28;20423;-75
2022/07/22 07:29:45;;;;;;;21.53;20.40;;;;;;;;;;5094327;28;20523;-76
2022/07/22 07:32:13;;;;;;;20.80;19.70;;;;;;;;;;5097213;28;20497;-75
2022/07/22 07:34:40;;;;;;;19.10;18.20;;;;;;;;;;5096656;28;20455;-75
2022/07/22 07:37:08;;;;;;;19.43;18.53;;;;;;;;;;5095559;28;20420;-75
2022/07/22 07:39:38;;;;;;;20.27;19.27;;;;;;;;;;5096395;28;20448;-75
2022/07/22 07:42:05;;;;;;;20.10;19.20;;;;;;;;;;5094558;28;20751;-74
2022/07/22 07:44:32;;;;;;;20.10;19.10;;;;;;;;;;5096365;28;20408;-75
2022/07/22 07:47:00;;;;;;;19.83;18.90;;;;;;;;;;5096734;28;20439;-75
2022/07/22 07:49:27;;;;;;;20.33;19.33;;;;;;;;;;5096133;28;20484;-75
2022/07/22 07:52:05;;;;;;;20.70;19.50;;;;;;;;;;5096283;28;20415;-74
2022/07/22 07:54:32;;;;;;;19.13;18.30;;;;;;;;;;5094729;28;20414;-75
2022/07/22 07:57:01;;;;;;;21.53;20.43;;;;;;;;;;5092741;28;20414;-75
2022/07/22 07:59:28;;;;;;;22.43;21.10;;;;;;;;;;5095727;28;20439;-75
2022/07/22 08:01:55;;;;;;;22.53;21.33;;;;;;;;;;5096620;28;20425;-75
2022/07/22 08:04:22;;;;;;;23.10;21.87;;;;;;;;;;5097334;28;20413;-75
2022/07/22 08:06:50;;;;;;;22.33;21.23;;;;;;;;;;5096653;28;20439;-75
2022/07/22 08:09:17;;;;;;;22.00;20.90;;;;;;;;;;5096621;28;20487;-76
2022/07/22 08:11:44;;;;;;;23.37;21.93;;;;;;;;;;5096644;28;20435;-75
2022/07/22 08:14:13;;;;;;;22.23;21.03;;;;;;;;;;5096468;28;20434;-75
2022/07/22 08:16:41;;;;;;;22.27;21.17;;;;;;;;;;5096917;28;20434;-75
2022/07/22 08:19:08;;;;;;;22.13;20.80;;;;;;;;;;5096448;28;20451;-75
2022/07/22 08:21:35;;;;;;;22.47;21.07;;;;;;;;;;5096907;28;20433;-75
2022/07/22 08:24:03;;;;;;;23.77;22.40;;;;;;;;;;5096667;28;20490;-75
2022/07/22 08:26:30;;;;;;;22.13;20.93;;;;;;;;;;5079578;28;20445;-74
2022/07/22 08:28:57;;;;;;;21.30;20.10;;;;;;;;;;5075757;28;20497;-74
2022/07/22 08:31:26;;;;;;;23.17;21.63;;;;;;;;;;5076313;28;20436;-74
2022/07/22 08:33:53;;;;;;;21.87;20.17;;;;;;;;;;5076159;28;20441;-75
2022/07/22 08:36:21;;;;;;;21.10;19.90;;;;;;;;;;5076111;28;20422;-74
2022/07/22 08:38:48;;;;;;;20.93;19.57;;;;;;;;;;5075703;28;20417;-74
2022/07/22 08:41:16;;;;;;;20.57;19.37;;;;;;;;;;5075763;28;20473;-74
2022/07/22 08:43:44;;;;;;;21.30;19.83;;;;;;;;;;5075997;28;20417;-74
2022/07/22 08:46:11;;;;;;;21.37;19.97;;;;;;;;;;5075945;28;20423;-75
2022/07/22 08:51:43;;;;;;;20.30;19.10;;;;;;;;;;5075601;28;20443;-74
2022/07/22 08:54:11;;;;;;;20.43;19.23;;;;;;;;;;5075855;28;20485;-75
2022/07/22 08:56:39;;;;;;;22.57;20.63;;;;;;;;;;5075704;28;20511;-75
2022/07/22 08:59:06;;;;;;;21.57;20.17;;;;;;;;;;5075640;28;20429;-75
2022/07/22 09:01:34;;;;;;;22.20;20.50;;;;;;;;;;5075667;28;20448;-75
2022/07/22 09:04:01;;;;;;;22.23;20.63;;;;;;;;;;5075340;28;20439;-74
2022/07/22 09:06:33;;;;;;;22.13;20.60;;;;;;;;;;5075583;28;20411;-75
2022/07/22 09:09:02;;;;;;;21.20;20.00;;;;;;;;;;5075461;28;20459;-75
2022/07/22 09:11:30;;;;;;;21.57;20.27;;;;;;;;;;5074676;28;20444;-75
2022/07/22 09:13:58;;;;;;;22.37;20.83;;;;;;;;;;5075393;28;20419;-75
2022/07/22 09:16:43;;;;;;;20.57;19.17;;;;;;;;;;5075330;28;20411;-75
2022/07/22 09:19:11;;;;;;;20.87;19.47;;;;;;;;;;5075193;28;20415;-75
2022/07/22 09:21:39;;;;;;;21.67;20.17;;;;;;;;;;5074932;28;20770;-75
2022/07/22 09:24:08;;;;;;;25.60;23.87;;;;;;;;;;5075246;28;20438;-74
2022/07/22 09:26:37;;;;;;;24.47;22.80;;;;;;;;;;5075226;28;20415;-75
2022/07/22 09:29:04;;;;;;;23.90;22.23;;;;;;;;;;5075091;28;20485;-74
2022/07/22 09:31:33;;;;;;;23.90;22.20;;;;;;;;;;5075133;28;20428;-75
2022/07/22 09:34:01;;;;;;;24.50;23.10;;;;;;;;;;5075044;28;20447;-75
2022/07/22 09:36:29;;;;;;;24.53;22.83;;;;;;;;;;5074965;28;20448;-75
2022/07/22 09:38:56;;;;;;;23.87;22.07;;;;;;;;;;5075035;28;20460;-75
2022/07/22 09:41:25;;;;;;;23.23;21.63;;;;;;;;;;5074489;28;20458;-75
2022/07/22 09:43:52;;;;;;;24.03;22.43;;;;;;;;;;5074617;28;20419;-75
2022/07/22 09:46:34;;;;;;;24.00;22.40;;;;;;;;;;5074863;28;20477;-75
2022/07/22 09:49:01;;;;;;;24.63;22.60;;;;;;;;;;5074567;28;20446;-75
2022/07/22 09:51:28;;;;;;;24.70;22.70;;;;;;;;;;5074476;28;20411;-75
2022/07/22 09:53:56;;;;;;;24.33;22.43;;;;;;;;;;5074751;28;20411;-75
2022/07/22 09:56:25;;;;;;;23.30;21.70;;;;;;;;;;5074725;28;20459;-75
2022/07/22 09:58:53;;;;;;;23.03;21.60;;;;;;;;;;5074643;28;20460;-75
2022/07/22 10:01:20;;;;;;;23.40;21.97;;;;;;;;;;5074690;28;20403;-75
2022/07/22 10:03:50;;;;;;;23.80;22.20;;;;;;;;;;5074458;28;20440;-75
2022/07/22 10:06:17;;;;;;;23.03;21.53;;;;;;;;;;5074473;28;20401;-75
2022/07/22 10:08:44;;;;;;;24.00;22.33;;;;;;;;;;5074349;28;20468;-75
2022/07/22 10:11:12;;;;;;;23.70;22.30;;;;;;;;;;5073913;28;20456;-75
2022/07/22 10:13:41;;;;;;;24.37;22.47;;;;;;;;;;5074224;28;20466;-75
2022/07/22 10:16:09;;;;;;;24.00;22.30;;;;;;;;;;5073915;28;20726;-81
2022/07/22 10:18:37;;;;;;;23.20;21.80;;;;;;;;;;5072266;28;20957;-80
2022/07/22 10:21:05;;;;;;;23.87;22.47;;;;;;;;;;5074034;28;20463;-81
2022/07/22 10:23:32;;;;;;;23.33;21.73;;;;;;;;;;5084470;28;20891;-79
2022/07/22 10:26:01;;;;;;;23.33;21.63;;;;;;;;;;5093923;28;20422;-74
2022/07/22 10:28:29;;;;;;;23.17;21.77;;;;;;;;;;5094038;28;20503;-73
2022/07/22 10:31:18;;;;;;;23.20;21.70;;;;;;;;;;5094216;28;20483;-74
2022/07/22 10:33:46;;;;;;;23.33;21.83;;;;;;;;;;5093968;28;20475;-79
2022/07/22 10:36:13;;;;;;;22.50;21.13;;;;;;;;;;5094117;28;20451;-81
2022/07/22 10:39:01;;;;;;;23.80;22.10;;;;;;;;;;5093692;28;20828;-80
2022/07/22 10:41:35;;;;;;;23.10;21.57;;;;;;;;;;5093476;28;20458;-82
2022/07/22 10:44:02;;;;;;;23.07;21.67;;;;;;;;;;5094055;28;20506;-78
2022/07/22 10:46:45;;;;;;;23.70;22.20;;;;;;;;;;5093539;28;20782;-78
2022/07/22 10:49:17;;;;;;;24.00;22.40;;;;;;;;;;5093691;28;20406;-77
2022/07/22 10:52:10;;;;;;;22.53;21.13;;;;;;;;;;5093638;28;20943;-76
2022/07/22 10:54:52;;;;;;;23.97;22.47;;;;;;;;;;5093612;28;20410;-74
2022/07/22 10:57:30;;;;;;;23.17;21.67;;;;;;;;;;5093227;28;20429;-80
2022/07/22 10:59:57;;;;;;;23.50;22.00;;;;;;;;;;5093448;28;20459;-74
2022/07/22 11:02:25;;;;;;;22.80;21.40;;;;;;;;;;5093396;28;20447;-74
2022/07/22 11:04:55;;;;;;;23.33;21.73;;;;;;;;;;5093005;28;20901;-74
2022/07/22 11:07:22;;;;;;;22.20;21.00;;;;;;;;;;5093212;28;20842;-74
2022/07/22 11:09:49;;;;;;;22.87;21.27;;;;;;;;;;5093324;28;20483;-74
2022/07/22 11:12:17;;;;;;;22.23;20.93;;;;;;;;;;5091909;28;20422;-74
2022/07/22 11:14:44;;;;;;;22.40;21.10;;;;;;;;;;5093263;28;20422;-74
2022/07/22 11:17:13;;;;;;;23.13;21.83;;;;;;;;;;5093422;28;20933;-74
2022/07/22 11:19:41;;;;;;;22.80;21.40;;;;;;;;;;5093085;28;20447;-74
2022/07/22 11:22:11;;;;;;;21.53;20.30;;;;;;;;;;5093184;28;20425;-73
2022/07/22 11:24:39;;;;;;;21.97;20.77;;;;;;;;;;5093153;28;20832;-74
2022/07/22 11:27:10;;;;;;;21.80;20.70;;;;;;;;;;5093137;28;20436;-73
2022/07/22 11:29:39;;;;;;;23.17;21.77;;;;;;;;;;5092846;28;20450;-74
2022/07/22 11:32:09;;;;;;;22.03;20.63;;;;;;;;;;5092611;28;20422;-73
2022/07/22 11:34:38;;;;;;;23.80;22.07;;;;;;;;;;5092434;28;20977;-72
2022/07/22 11:37:06;;;;;;;22.53;21.17;;;;;;;;;;5092675;28;20445;-72
2022/07/22 11:39:36;;;;;;;23.90;22.10;;;;;;;;;;5092765;28;20450;-72
2022/07/22 11:42:04;;;;;;;22.77;21.47;;;;;;;;;;5092809;28;20900;-72
2022/07/22 11:44:32;;;;;;;24.13;22.57;;;;;;;;;;5092513;28;20870;-72
2022/07/22 11:47:01;;;;;;;22.07;20.87;;;;;;;;;;5092702;28;20448;-72
2022/07/22 11:49:30;;;;;;;22.53;21.33;;;;;;;;;;5092570;28;20497;-71
2022/07/22 11:51:58;;;;;;;22.37;21.13;;;;;;;;;;5092625;28;20448;-72
2022/07/22 11:54:26;;;;;;;22.70;21.23;;;;;;;;;;5091455;28;20494;-73
2022/07/22 11:56:56;;;;;;;22.20;20.93;;;;;;;;;;5092073;28;20982;-72
2022/07/22 11:59:23;;;;;;;22.00;20.70;;;;;;;;;;5092562;28;20421;-73
2022/07/22 12:01:52;;;;;;;21.73;20.43;;;;;;;;;;5092736;28;20419;-72
2022/07/22 12:04:21;;;;;;;23.00;21.60;;;;;;;;;;5092461;28;20425;-73
2022/07/22 12:06:48;;;;;;;23.43;21.80;;;;;;;;;;5092801;28;20419;-73
2022/07/22 12:09:16;;;;;;;22.73;21.43;;;;;;;;;;5092282;28;20414;-73
2022/07/22 12:11:44;;;;;;;22.90;21.60;;;;;;;;;;5092330;28;20469;-72
2022/07/22 12:14:14;;;;;;;24.33;22.57;;;;;;;;;;5092374;28;20414;-72
2022/07/22 12:16:41;;;;;;;23.17;21.57;;;;;;;;;;5092437;28;20419;-72
2022/07/22 12:19:09;;;;;;;24.43;22.87;;;;;;;;;;5092702;28;20471;-72
2022/07/22 12:21:38;;;;;;;23.03;21.43;;;;;;;;;;5092635;28;20455;-73
2022/07/22 12:24:06;;;;;;;23.63;22.10;;;;;;;;;;5092925;28;20438;-73
2022/07/22 12:26:47;;;;;;;23.03;21.33;;;;;;;;;;5092693;28;20407;-73
2022/07/22 12:29:20;;;;;;;25.37;23.57;;;;;;;;;;5092659;28;20431;-73
2022/07/22 12:31:48;;;;;;;24.60;23.00;;;;;;;;;;5092223;28;20464;-73
2022/07/22 12:34:15;;;;;;;23.70;22.40;;;;;;;;;;5092838;28;20478;-73
2022/07/22 12:36:46;;;;;;;24.00;22.50;;;;;;;;;;5092141;28;20431;-73
2022/07/22 12:39:14;;;;;;;24.10;22.70;;;;;;;;;;5091998;28;20411;-73
2022/07/22 12:41:46;;;;;;;22.00;20.80;;;;;;;;;;5092319;28;20422;-72
2022/07/22 12:44:16;;;;;;;23.93;22.53;;;;;;;;;;5092441;28;20432;-72
2022/07/22 12:46:47;;;;;;;22.80;21.50;;;;;;;;;;5095392;28;20904;-73
2022/07/22 12:49:16;;;;;;;23.93;22.40;;;;;;;;;;5096062;28;20449;-73
2022/07/22 12:51:43;;;;;;;26.97;23.07;;;;;;;;;;5095850;28;20458;-73
2022/07/22 12:54:11;;;;;;;24.30;22.90;;;;;;;;;;5095981;28;20448;-72
2022/07/22 12:56:39;;;;;;;23.30;21.70;;;;;;;;;;5095360;28;20414;-73
2022/07/22 12:59:06;;;;;;;22.20;20.90;;;;;;;;;;5095656;28;20425;-72
2022/07/22 13:01:34;;;;;;;24.10;22.50;;;;;;;;;;5095718;28;20460;-72
2022/07/22 13:04:03;;;;;;;24.93;22.70;;;;;;;;;;5095522;28;20436;-72
2022/07/22 13:06:30;;;;;;;23.90;22.50;;;;;;;;;;5095356;28;20423;-73
2022/07/22 13:08:58;;;;;;;24.73;22.70;;;;;;;;;;5095374;28;20468;-72
2022/07/22 13:11:25;;;;;;;25.53;23.77;;;;;;;;;;5095213;28;20882;-72
2022/07/22 13:13:52;;;;;;;25.23;23.63;;;;;;;;;;5095726;28;20434;-72
2022/07/22 13:16:20;;;;;;;24.97;23.27;;;;;;;;;;5095298;28;20453;-72
2022/07/22 13:18:47;;;;;;;24.80;23.20;;;;;;;;;;5095527;28;20787;-82
2022/07/22 13:21:16;;;;;;;24.47;22.87;;;;;;;;;;5095372;28;20782;-76
2022/07/22 13:23:43;;;;;;;24.10;22.60;;;;;;;;;;5095471;28;20407;-78
2022/07/22 13:26:10;;;;;;;23.87;22.27;;;;;;;;;;5093906;28;20776;-78
2022/07/22 13:28:38;;;;;;;24.53;22.70;;;;;;;;;;5095045;28;20440;-79
2022/07/22 13:31:05;;;;;;;24.40;22.90;;;;;;;;;;5094951;28;20968;-75
2022/07/22 13:33:32;;;;;;;24.47;22.97;;;;;;;;;;5095104;28;20515;-75
2022/07/22 13:36:00;;;;;;;25.03;23.43;;;;;;;;;;5095147;28;20415;-79
2022/07/22 13:38:28;;;;;;;24.67;23.03;;;;;;;;;;5095201;28;20443;-78
2022/07/22 13:40:56;;;;;;;24.90;23.40;;;;;;;;;;5094700;28;21434;-76
2022/07/22 13:43:23;;;;;;;24.80;23.20;;;;;;;;;;5094906;28;20407;-76
2022/07/22 13:45:51;;;;;;;24.30;22.80;;;;;;;;;;5094105;28;20875;-76
2022/07/22 13:48:20;;;;;;;23.87;22.40;;;;;;;;;;5094661;28;20415;-75
2022/07/22 13:50:47;;;;;;;24.37;22.93;;;;;;;;;;5094881;28;20483;-76
2022/07/22 13:53:15;;;;;;;25.53;23.60;;;;;;;;;;5094389;28;20448;-75
2022/07/22 13:55:44;;;;;;;24.40;22.90;;;;;;;;;;5094543;28;20445;-75
2022/07/22 13:58:11;;;;;;;24.30;22.60;;;;;;;;;;5094432;28;20892;-75
2022/07/22 14:00:38;;;;;;;23.73;22.33;;;;;;;;;;5094743;28;20776;-75
2022/07/22 14:03:07;;;;;;;24.73;23.03;;;;;;;;;;5094898;28;20422;-76
2022/07/22 14:05:34;;;;;;;25.00;23.40;;;;;;;;;;5094296;28;20412;-76
2022/07/22 14:08:01;;;;;;;25.70;23.70;;;;;;;;;;5094399;28;20513;-76
2022/07/22 14:10:28;;;;;;;24.57;23.03;;;;;;;;;;5094252;28;20447;-76
2022/07/22 14:12:57;;;;;;;25.73;24.03;;;;;;;;;;5094336;28;20415;-76
2022/07/22 14:15:25;;;;;;;24.90;23.50;;;;;;;;;;5094353;28;20427;-76
2022/07/22 14:17:52;;;;;;;25.07;23.37;;;;;;;;;;5094317;28;20433;-75
2022/07/22 14:20:19;;;;;;;23.53;22.00;;;;;;;;;;5094314;28;20440;-75
2022/07/22 14:22:46;;;;;;;24.20;22.60;;;;;;;;;;5094248;28;20440;-75
2022/07/22 14:25:14;;;;;;;24.70;23.20;;;;;;;;;;5094069;28;20414;-75